createdAt,value
2022-08-17T00:00:10.989Z,50.27
2022-08-17T00:03:08.202Z,50.69
2022-08-17T00:05:38.760Z,50.20
2022-08-17T00:08:06.338Z,50.05
2022-08-17T00:10:34.662Z,49.77
2022-08-17T00:13:06.624Z,50.23
2022-08-17T00:15:34.333Z,50.04
2022-08-17T00:18:03.307Z,50.11
2022-08-17T00:20:50.877Z,49.80
2022-08-17T00:23:18.835Z,49.79
2022-08-17T00:25:47.934Z,49.85
2022-08-17T00:28:16.860Z,50.23
2022-08-17T00:30:51.255Z,50.60
2022-08-17T00:33:24.141Z,50.60
2022-08-17T00:35:52.651Z,50.50
2022-08-17T00:38:20.361Z,50.28
2022-08-17T00:40:50.278Z,49.68
2022-08-17T00:43:22.616Z,49.48
2022-08-17T00:45:50.627Z,49.08
2022-08-17T00:48:28.994Z,48.78
2022-08-17T00:51:06.373Z,48.93
2022-08-17T00:53:35.898Z,48.86
2022-08-17T00:56:07.089Z,48.45
2022-08-17T00:58:36.194Z,48.82
2022-08-17T01:01:06.193Z,48.64
2022-08-17T01:03:35.711Z,48.54
2022-08-17T01:06:07.142Z,48.17
2022-08-17T01:08:36.621Z,48.03
2022-08-17T01:11:05.313Z,47.74
2022-08-17T01:13:40.841Z,48.36
2022-08-17T01:16:15.848Z,48.26
2022-08-17T01:18:43.749Z,48.42
2022-08-17T01:21:21.101Z,48.59
2022-08-17T01:23:50.403Z,48.62
2022-08-17T01:26:19.201Z,48.40
2022-08-17T01:28:54.416Z,48.58
2022-08-17T01:31:23.531Z,48.71
2022-08-17T01:33:51.194Z,49.00
2022-08-17T01:36:19.030Z,49.22
2022-08-17T01:38:46.697Z,49.47
2022-08-17T01:41:17.732Z,49.46
2022-08-17T01:43:50.195Z,49.52
2022-08-17T01:46:26.861Z,49.84
2022-08-17T01:48:55.086Z,49.53
2022-08-17T01:51:23.278Z,49.44
2022-08-17T01:53:53.937Z,49.39
2022-08-17T01:56:25.312Z,49.30
2022-08-17T01:58:53.515Z,49.35
2022-08-17T02:01:26.373Z,49.36
2022-08-17T02:04:00.652Z,49.11
2022-08-17T02:06:30.660Z,48.94
2022-08-17T02:09:02.893Z,49.19
2022-08-17T02:11:35.043Z,48.80
2022-08-17T02:14:04.111Z,48.54
2022-08-17T02:16:36.894Z,48.92
2022-08-17T02:19:05.982Z,48.88
2022-08-17T02:21:33.978Z,48.91
2022-08-17T02:24:01.850Z,48.85
2022-08-17T02:26:29.486Z,48.76
2022-08-17T02:28:58.363Z,48.58
2022-08-17T02:31:25.952Z,48.56
2022-08-17T02:34:00.341Z,48.40
2022-08-17T02:36:32.184Z,48.46
2022-08-17T02:39:01.430Z,48.09
2022-08-17T02:41:29.108Z,48.19
2022-08-17T02:43:58.530Z,48.02
2022-08-17T02:46:26.176Z,48.48
2022-08-17T02:48:53.758Z,48.33
2022-08-17T02:51:21.323Z,48.51
2022-08-17T02:53:48.974Z,48.41
2022-08-17T02:56:16.912Z,48.52
2022-08-17T02:58:44.479Z,48.37
2022-08-17T03:01:13.551Z,48.56
2022-08-17T03:03:41.576Z,48.07
2022-08-17T03:06:10.038Z,48.03
2022-08-17T03:08:38.357Z,48.19
2022-08-17T03:11:06.241Z,47.91
2022-08-17T03:13:34.018Z,47.97
2022-08-17T03:16:01.649Z,47.77
2022-08-17T03:18:30.561Z,47.44
2022-08-17T03:21:01.679Z,47.16
2022-08-17T03:23:30.360Z,47.41
2022-08-17T03:25:58.617Z,47.30
2022-08-17T03:28:28.125Z,47.47
2022-08-17T03:30:55.867Z,47.37
2022-08-17T03:33:23.497Z,47.46
2022-08-17T03:35:53.028Z,47.59
2022-08-17T03:38:20.622Z,47.36
2022-08-17T03:40:57.975Z,47.62
2022-08-17T03:43:29.639Z,47.15
2022-08-17T03:46:27.624Z,47.24
2022-08-17T03:49:14.941Z,47.21
2022-08-17T03:52:01.645Z,46.83
2022-08-17T03:54:46.655Z,47.02
2022-08-17T03:57:14.856Z,47.26
2022-08-17T03:59:42.885Z,47.31
2022-08-17T04:02:19.683Z,47.45
2022-08-17T04:04:50.515Z,47.70
2022-08-17T04:07:19.608Z,47.79
2022-08-17T04:09:47.614Z,47.85
2022-08-17T04:12:16.346Z,47.66
2022-08-17T04:14:52.085Z,47.47
2022-08-17T04:17:23.445Z,47.47
2022-08-17T04:19:51.008Z,47.40
2022-08-17T04:22:31.431Z,47.46
2022-08-17T04:25:05.652Z,47.60
2022-08-17T04:27:33.373Z,47.74
2022-08-17T04:30:01.070Z,47.68
2022-08-17T04:33:03.401Z,47.52
2022-08-17T04:35:19.897Z,47.94
2022-08-17T04:37:48.908Z,47.90
2022-08-17T04:40:34.243Z,47.76
2022-08-17T04:43:03.527Z,47.87
2022-08-17T04:45:32.184Z,47.65
2022-08-17T04:48:00.303Z,47.68
2022-08-17T04:50:27.934Z,47.59
2022-08-17T04:52:57.290Z,47.47
2022-08-17T04:55:25.030Z,47.61
2022-08-17T04:57:52.544Z,47.55
2022-08-17T05:00:20.299Z,47.40
2022-08-17T05:02:49.814Z,47.52
2022-08-17T05:05:19.974Z,47.57
2022-08-17T05:07:48.745Z,47.28
2022-08-17T05:10:17.920Z,47.08
2022-08-17T05:12:45.473Z,46.94
2022-08-17T05:15:15.961Z,46.97
2022-08-17T05:17:43.728Z,46.83
2022-08-17T05:20:12.286Z,46.85
2022-08-17T05:22:50.054Z,46.88
2022-08-17T05:25:24.952Z,46.72
2022-08-17T05:27:54.106Z,46.56
2022-08-17T05:30:22.895Z,46.78
2022-08-17T05:32:55.468Z,46.75
2022-08-17T05:35:23.957Z,46.67
2022-08-17T05:37:51.767Z,46.41
2022-08-17T05:40:21.374Z,46.29
2022-08-17T05:42:49.806Z,46.37
2022-08-17T05:45:54.856Z,46.20
2022-08-17T05:48:10.166Z,46.29
2022-08-17T05:50:49.317Z,46.50
2022-08-17T05:53:25.247Z,46.50
2022-08-17T05:56:05.470Z,46.55
2022-08-17T05:58:43.052Z,46.31
2022-08-17T06:01:20.323Z,46.27
2022-08-17T06:03:56.199Z,45.98
2022-08-17T06:06:37.779Z,45.97
2022-08-17T06:09:27.613Z,46.04
2022-08-17T06:12:12.865Z,45.85
2022-08-17T06:14:58.829Z,45.90
2022-08-17T06:17:28.023Z,45.77
2022-08-17T06:19:59.619Z,45.96
2022-08-17T06:22:32.886Z,45.67
2022-08-17T06:25:03.395Z,45.50
2022-08-17T06:27:38.477Z,45.53
2022-08-17T06:30:10.048Z,45.27
2022-08-17T06:32:39.771Z,45.31
2022-08-17T06:35:10.236Z,45.12
2022-08-17T06:37:55.158Z,45.25
2022-08-17T06:40:36.677Z,45.07
2022-08-17T06:43:20.106Z,45.18
2022-08-17T06:45:54.157Z,44.79
2022-08-17T06:48:27.617Z,44.86
2022-08-17T06:51:01.758Z,44.74
2022-08-17T06:53:35.394Z,44.52
2022-08-17T06:56:08.670Z,44.23
2022-08-17T06:58:40.802Z,43.90
2022-08-17T07:01:11.402Z,44.19
2022-08-17T07:03:45.513Z,44.38
2022-08-17T07:06:16.826Z,44.39
2022-08-17T07:08:56.458Z,44.61
2022-08-17T07:11:31.330Z,44.38
2022-08-17T07:14:17.301Z,44.25
2022-08-17T07:16:50.309Z,43.81
2022-08-17T07:19:22.435Z,43.76
2022-08-17T07:21:58.047Z,43.50
2022-08-17T07:24:37.185Z,43.50
2022-08-17T07:27:08.806Z,43.83
2022-08-17T07:29:42.602Z,43.08
2022-08-17T07:32:12.254Z,43.79
2022-08-17T07:35:03.089Z,45.30
2022-08-17T07:37:33.219Z,45.39
2022-08-17T07:40:16.494Z,45.08
2022-08-17T07:43:00.953Z,44.54
2022-08-17T07:45:48.432Z,43.98
2022-08-17T07:48:21.034Z,43.99
2022-08-17T07:50:50.710Z,44.12
2022-08-17T07:53:23.054Z,43.95
2022-08-17T07:55:51.609Z,43.67
2022-08-17T07:58:21.350Z,43.15
2022-08-17T08:01:05.362Z,42.68
2022-08-17T08:03:34.177Z,42.69
2022-08-17T08:06:03.579Z,41.83
2022-08-17T08:08:38.276Z,41.73
2022-08-17T08:11:10.217Z,41.84
2022-08-17T08:13:44.949Z,41.97
2022-08-17T08:16:25.242Z,41.84
2022-08-17T08:18:57.266Z,41.90
2022-08-17T08:21:32.894Z,41.83
2022-08-17T08:24:09.697Z,41.80
2022-08-17T08:26:43.350Z,42.05
2022-08-17T08:29:22.402Z,41.60
2022-08-17T08:32:03.578Z,41.38
2022-08-17T08:34:58.843Z,41.23
2022-08-17T08:37:40.510Z,41.39
2022-08-17T08:40:21.224Z,41.12
2022-08-17T08:42:57.908Z,41.35
2022-08-17T08:45:30.405Z,41.06
2022-08-17T08:48:23.050Z,41.25
2022-08-17T08:51:10.893Z,40.92
2022-08-17T08:53:48.962Z,40.55
2022-08-17T08:56:25.956Z,40.59
2022-08-17T08:59:03.010Z,41.25
2022-08-17T09:01:38.724Z,40.59
2022-08-17T09:04:40.693Z,40.70
2022-08-17T09:07:33.559Z,40.31
2022-08-17T09:10:10.479Z,40.63
2022-08-17T09:12:47.537Z,40.61
2022-08-17T09:15:19.008Z,40.87
2022-08-17T09:18:08.873Z,40.85
2022-08-17T09:20:50.186Z,41.44
2022-08-17T09:23:30.281Z,41.34
2022-08-17T09:26:03.946Z,41.21
2022-08-17T09:28:36.344Z,41.76
2022-08-17T09:31:09.266Z,42.01
2022-08-17T09:33:43.449Z,42.19
2022-08-17T09:36:21.668Z,42.46
2022-08-17T09:38:58.168Z,42.23
2022-08-17T09:41:32.786Z,42.63
2022-08-17T09:44:08.502Z,42.62
2022-08-17T09:46:54.573Z,42.40
2022-08-17T09:49:30.717Z,42.65
2022-08-17T09:52:04.182Z,43.02
2022-08-17T09:54:41.305Z,42.78
2022-08-17T09:57:30.200Z,42.97
2022-08-17T10:00:16.967Z,42.90
2022-08-17T10:03:10.000Z,43.28
2022-08-17T10:05:45.317Z,43.04
2022-08-17T10:08:25.573Z,43.29
2022-08-17T10:11:05.430Z,43.80
2022-08-17T10:13:39.119Z,43.67
2022-08-17T10:16:15.316Z,44.05
2022-08-17T10:18:51.630Z,44.13
2022-08-17T10:21:37.937Z,44.27
2022-08-17T10:24:34.380Z,44.44
2022-08-17T10:27:09.586Z,44.91
2022-08-17T10:29:48.602Z,45.40
2022-08-17T10:32:32.630Z,45.21
2022-08-17T10:35:29.703Z,45.74
2022-08-17T10:38:32.525Z,45.65
2022-08-17T10:41:12.868Z,45.61
2022-08-17T10:44:35.397Z,45.72
2022-08-17T10:46:57.247Z,45.65
2022-08-17T10:49:32.528Z,45.73
2022-08-17T10:52:02.906Z,45.74
2022-08-17T10:54:48.375Z,45.98
2022-08-17T10:57:42.688Z,46.00
2022-08-17T11:01:12.633Z,46.35
2022-08-17T11:03:53.377Z,46.54
2022-08-17T11:06:30.875Z,46.87
2022-08-17T11:09:24.639Z,46.42
2022-08-17T11:12:07.138Z,46.67
2022-08-17T11:14:49.947Z,47.52
2022-08-17T11:17:41.379Z,47.85
2022-08-17T11:20:23.143Z,48.02
2022-08-17T11:23:23.864Z,48.11
2022-08-17T11:25:54.226Z,48.10
2022-08-17T11:28:25.755Z,47.83
2022-08-17T11:30:57.509Z,47.96
2022-08-17T11:33:59.206Z,48.09
2022-08-17T11:36:37.368Z,47.77
2022-08-17T11:39:16.173Z,47.93
2022-08-17T11:41:50.898Z,47.88
2022-08-17T11:44:39.041Z,47.46
2022-08-17T11:47:33.657Z,47.38
2022-08-17T11:50:38.734Z,47.02
2022-08-17T11:53:07.913Z,46.68
2022-08-17T11:56:05.157Z,47.23
2022-08-17T11:58:39.936Z,47.21
2022-08-17T12:01:10.300Z,47.25
2022-08-17T12:03:56.001Z,47.70
2022-08-17T12:06:45.016Z,47.37
2022-08-17T12:09:17.883Z,46.80
2022-08-17T12:11:57.763Z,46.30
2022-08-17T12:15:08.146Z,45.99
2022-08-17T12:17:41.299Z,46.32
2022-08-17T12:20:16.093Z,45.60
2022-08-17T12:22:54.671Z,45.52
2022-08-17T12:25:27.156Z,45.01
2022-08-17T12:28:05.426Z,44.56
2022-08-17T12:30:35.088Z,43.78
2022-08-17T12:33:02.817Z,43.86
2022-08-17T12:35:35.054Z,43.42
2022-08-17T12:38:06.396Z,43.49
2022-08-17T12:40:55.461Z,44.01
2022-08-17T12:43:29.182Z,43.79
2022-08-17T12:46:01.008Z,43.96
2022-08-17T12:48:58.765Z,43.60
2022-08-17T12:51:29.874Z,43.62
2022-08-17T12:53:57.536Z,43.35
2022-08-17T12:56:25.446Z,43.76
2022-08-17T12:58:55.481Z,42.93
2022-08-17T13:01:25.681Z,42.44
2022-08-17T13:04:00.615Z,41.59
2022-08-17T13:06:33.074Z,41.87
2022-08-17T13:09:10.432Z,41.92
2022-08-17T13:11:47.747Z,40.85
2022-08-17T13:14:18.205Z,40.84
2022-08-17T13:16:50.963Z,40.62
2022-08-17T13:19:39.932Z,40.75
2022-08-17T13:22:12.852Z,40.78
2022-08-17T13:24:52.966Z,40.48
2022-08-17T13:27:22.624Z,41.80
2022-08-17T13:29:53.443Z,40.93
2022-08-17T13:32:24.106Z,40.11
2022-08-17T13:35:12.115Z,40.35
2022-08-17T13:37:58.583Z,40.77
2022-08-17T13:40:31.309Z,40.92
2022-08-17T13:42:59.526Z,40.42
2022-08-17T13:45:50.398Z,40.51
2022-08-17T13:48:27.522Z,40.92
2022-08-17T13:51:27.043Z,40.44
2022-08-17T13:54:00.316Z,40.46
2022-08-17T13:56:39.589Z,40.37
2022-08-17T13:59:11.266Z,39.99
2022-08-17T14:01:41.388Z,39.78
2022-08-17T14:04:12.207Z,40.19
2022-08-17T14:06:54.165Z,40.24
2022-08-17T14:09:29.779Z,40.99
2022-08-17T14:12:00.176Z,40.76
2022-08-17T14:14:29.190Z,40.27
2022-08-17T14:16:57.810Z,40.89
2022-08-17T14:19:26.900Z,40.73
2022-08-17T14:21:58.665Z,40.35
2022-08-17T14:24:30.761Z,39.45
2022-08-17T14:26:58.986Z,39.52
2022-08-17T14:29:29.197Z,40.00
2022-08-17T14:31:58.156Z,40.24
2022-08-17T14:34:26.149Z,39.88
2022-08-17T14:36:53.815Z,39.72
2022-08-17T14:39:21.863Z,40.01
2022-08-17T14:41:50.930Z,40.31
2022-08-17T14:44:18.480Z,40.68
2022-08-17T14:46:46.240Z,40.42
2022-08-17T14:49:15.533Z,40.66
2022-08-17T14:51:44.498Z,41.02
2022-08-17T14:54:32.636Z,41.33
2022-08-17T14:57:24.888Z,41.29
2022-08-17T14:59:54.895Z,40.55
2022-08-17T15:02:29.840Z,40.70
2022-08-17T15:05:00.470Z,41.27
2022-08-17T15:07:30.255Z,40.76
2022-08-17T15:09:58.703Z,40.67
2022-08-17T15:12:33.624Z,40.36
2022-08-17T15:15:01.941Z,39.94
2022-08-17T15:17:45.063Z,40.34
2022-08-17T15:20:15.312Z,39.81
2022-08-17T15:22:44.220Z,40.36
2022-08-17T15:25:12.740Z,40.45
2022-08-17T15:27:41.834Z,40.32
2022-08-17T15:30:10.906Z,40.74
2022-08-17T15:32:40.817Z,40.38
2022-08-17T15:35:11.703Z,40.10
2022-08-17T15:37:40.152Z,40.24
2022-08-17T15:40:10.114Z,40.48
2022-08-17T15:42:38.383Z,40.63
2022-08-17T15:45:09.907Z,40.38
2022-08-17T15:47:37.867Z,39.88
2022-08-17T15:50:06.415Z,39.70
2022-08-17T15:52:38.024Z,40.46
2022-08-17T15:55:07.720Z,40.25
2022-08-17T15:57:36.081Z,41.00
2022-08-17T16:00:08.701Z,40.81
2022-08-17T16:03:20.308Z,40.63
2022-08-17T16:05:27.326Z,41.55
2022-08-17T16:07:55.948Z,41.55
2022-08-17T16:10:25.187Z,42.16
2022-08-17T16:13:03.208Z,42.63
2022-08-17T16:15:32.744Z,43.12
2022-08-17T16:18:00.526Z,42.99
2022-08-17T16:20:30.548Z,43.56
2022-08-17T16:22:58.857Z,43.86
2022-08-17T16:25:47.230Z,44.56
2022-08-17T16:28:18.226Z,45.11
2022-08-17T16:30:47.137Z,45.14
2022-08-17T16:33:16.558Z,45.24
2022-08-17T16:35:44.157Z,45.85
2022-08-17T16:38:12.391Z,45.71
2022-08-17T16:40:40.434Z,45.76
2022-08-17T16:43:10.390Z,46.40
2022-08-17T16:45:40.041Z,46.53
2022-08-17T16:48:09.620Z,46.50
2022-08-17T16:50:38.460Z,46.11
2022-08-17T16:53:07.808Z,46.48
2022-08-17T16:55:36.501Z,46.87
2022-08-17T16:58:04.896Z,46.41
2022-08-17T17:00:34.222Z,46.09
2022-08-17T17:03:19.632Z,46.35
2022-08-17T17:05:58.482Z,46.33
2022-08-17T17:08:31.259Z,46.28
2022-08-17T17:11:04.841Z,46.92
2022-08-17T17:13:41.907Z,47.42
2022-08-17T17:16:19.196Z,47.66
2022-08-17T17:19:03.247Z,47.15
2022-08-17T17:21:36.729Z,46.95
2022-08-17T17:24:12.241Z,46.98
2022-08-17T17:26:53.841Z,47.07
2022-08-17T17:29:47.492Z,47.15
2022-08-17T17:32:20.817Z,47.12
2022-08-17T17:34:54.604Z,47.93
2022-08-17T17:37:29.955Z,47.54
2022-08-17T17:40:03.672Z,47.88
2022-08-17T17:42:33.005Z,48.12
2022-08-17T17:45:17.578Z,48.56
2022-08-17T17:47:46.092Z,48.32
2022-08-17T17:50:18.178Z,48.60
2022-08-17T17:52:52.594Z,48.21
2022-08-17T17:55:25.990Z,48.37
2022-08-17T17:58:03.646Z,48.82
2022-08-17T18:00:38.675Z,48.47
2022-08-17T18:03:21.766Z,49.07
2022-08-17T18:06:00.663Z,49.24
2022-08-17T18:08:47.806Z,49.85
2022-08-17T18:11:35.053Z,49.62
2022-08-17T18:14:15.240Z,49.23
2022-08-17T18:16:43.640Z,49.68
2022-08-17T18:19:14.934Z,49.62
2022-08-17T18:21:48.145Z,49.66
2022-08-17T18:24:15.789Z,50.13
2022-08-17T18:26:48.144Z,49.75
2022-08-17T18:29:31.470Z,50.19
2022-08-17T18:32:24.553Z,50.49
2022-08-17T18:34:54.112Z,50.73
2022-08-17T18:37:35.258Z,50.88
2022-08-17T18:40:26.869Z,50.99
2022-08-17T18:43:02.900Z,51.14
2022-08-17T18:45:38.369Z,51.92
2022-08-17T18:48:17.901Z,52.21
2022-08-17T18:50:45.899Z,51.98
2022-08-17T18:53:30.346Z,52.90
2022-08-17T18:56:35.913Z,52.87
2022-08-17T18:59:10.799Z,52.65
2022-08-17T19:02:05.156Z,52.94
2022-08-17T19:04:41.366Z,53.35
2022-08-17T19:07:25.433Z,53.56
2022-08-17T19:09:59.254Z,54.01
2022-08-17T19:12:32.407Z,53.58
2022-08-17T19:15:02.824Z,53.57
2022-08-17T19:17:43.682Z,54.17
2022-08-17T19:20:18.442Z,54.82
2022-08-17T19:22:55.463Z,54.27
2022-08-17T19:25:28.328Z,55.10
2022-08-17T19:28:03.515Z,55.41
2022-08-17T19:30:32.027Z,55.28
2022-08-17T19:33:01.843Z,55.53
2022-08-17T19:35:39.124Z,55.70
2022-08-17T19:38:12.925Z,56.04
2022-08-17T19:41:03.115Z,56.55
2022-08-17T19:43:47.907Z,56.33
2022-08-17T19:46:25.935Z,56.26
2022-08-17T19:49:03.253Z,56.63
2022-08-17T19:51:40.465Z,57.02
2022-08-17T19:54:15.419Z,56.97
2022-08-17T19:56:55.420Z,57.10
2022-08-17T19:59:35.952Z,57.49
2022-08-17T20:02:16.172Z,57.91
2022-08-17T20:04:48.370Z,57.86
2022-08-17T20:07:19.938Z,57.88
2022-08-17T20:09:52.938Z,57.96
2022-08-17T20:12:26.639Z,58.07
2022-08-17T20:14:57.617Z,58.31
2022-08-17T20:17:28.629Z,58.31
2022-08-17T20:20:04.508Z,58.20
2022-08-17T20:22:52.521Z,58.63
2022-08-17T20:25:29.871Z,58.69
2022-08-17T20:28:06.263Z,58.61
2022-08-17T20:30:38.351Z,58.69
2022-08-17T20:33:13.122Z,58.91
2022-08-17T20:36:01.149Z,59.20
2022-08-17T20:38:41.660Z,59.06
2022-08-17T20:41:15.211Z,59.01
2022-08-17T20:43:52.181Z,59.50
2022-08-17T20:46:34.133Z,59.68
2022-08-17T20:49:21.667Z,59.58
2022-08-17T20:52:01.744Z,60.05
2022-08-17T20:54:49.764Z,60.20
2022-08-17T20:57:49.773Z,60.38
2022-08-17T21:00:45.066Z,60.43
2022-08-17T21:03:51.903Z,60.48
2022-08-17T21:06:23.218Z,59.95
2022-08-17T21:08:58.742Z,59.96
2022-08-17T21:12:04.012Z,60.19
2022-08-17T21:14:57.981Z,60.10
2022-08-17T21:17:41.774Z,60.20
2022-08-17T21:20:26.382Z,60.42
2022-08-17T21:23:08.279Z,60.56
2022-08-17T21:25:57.016Z,60.38
2022-08-17T21:28:35.250Z,60.45
2022-08-17T21:31:11.813Z,60.46
2022-08-17T21:34:20.436Z,60.03
2022-08-17T21:36:50.158Z,59.59
2022-08-17T21:39:24.229Z,59.91
2022-08-17T21:42:00.517Z,60.34
2022-08-17T21:44:34.610Z,60.16
2022-08-17T21:47:21.696Z,60.02
2022-08-17T21:49:50.869Z,60.18
2022-08-17T21:52:21.125Z,60.22
2022-08-17T21:54:51.872Z,60.18
2022-08-17T21:57:22.628Z,60.37
2022-08-17T21:59:54.554Z,60.42
2022-08-17T22:02:24.802Z,60.54
2022-08-17T22:05:02.770Z,60.55
2022-08-17T22:07:40.682Z,60.55
2022-08-17T22:10:28.583Z,60.46
2022-08-17T22:13:03.413Z,60.66
2022-08-17T22:15:31.042Z,60.67
2022-08-17T22:20:30.945Z,60.43
2022-08-17T22:23:30.118Z,61.17
2022-08-17T22:28:40.822Z,61.19
2022-08-17T22:31:10.815Z,61.37
2022-08-17T22:33:46.717Z,61.28
2022-08-17T22:36:22.581Z,61.38
2022-08-17T22:38:51.532Z,61.48
2022-08-17T22:41:30.088Z,61.41
2022-08-17T22:43:59.299Z,61.29
2022-08-17T22:46:27.667Z,61.48
2022-08-17T22:48:59.217Z,62.07
2022-08-17T22:51:30.600Z,61.79
2022-08-17T22:54:19.162Z,62.50
2022-08-17T22:57:18.669Z,62.23
2022-08-17T22:59:50.380Z,62.48
2022-08-17T23:02:22.992Z,62.92
2022-08-17T23:04:53.026Z,63.25
2022-08-17T23:07:22.581Z,63.32
2022-08-17T23:09:50.171Z,63.57
2022-08-17T23:12:23.188Z,64.25
2022-08-17T23:14:56.898Z,64.44
2022-08-17T23:17:24.489Z,64.47
2022-08-17T23:19:52.044Z,64.44
2022-08-17T23:22:19.619Z,64.55
2022-08-17T23:24:50.472Z,64.97
2022-08-17T23:27:19.793Z,65.01
2022-08-17T23:29:48.583Z,64.90
2022-08-17T23:32:18.581Z,64.48
2022-08-17T23:34:47.688Z,64.28
2022-08-17T23:37:16.690Z,64.58
2022-08-17T23:39:45.616Z,64.71
2022-08-17T23:42:21.767Z,64.87
2022-08-17T23:44:49.729Z,64.72
2022-08-17T23:47:17.809Z,65.05
2022-08-17T23:49:45.652Z,64.74
2022-08-17T23:52:16.403Z,65.06
2022-08-17T23:54:46.365Z,65.33
2022-08-17T23:57:17.650Z,65.24
2022-08-17T23:59:45.882Z,64.95
